createdAt,value
2022-11-23T00:00:56.441Z,2.82
2022-11-23T00:01:56.474Z,2.79
2022-11-23T00:02:56.457Z,2.81
2022-11-23T00:03:56.399Z,2.84
2022-11-23T00:04:56.383Z,2.84
2022-11-23T00:05:56.389Z,2.81
2022-11-23T00:06:56.380Z,2.84
2022-11-23T00:07:56.356Z,2.85
2022-11-23T00:08:56.341Z,2.82
2022-11-23T00:09:56.332Z,2.84
2022-11-23T00:10:56.318Z,2.84
2022-11-23T00:11:56.305Z,2.84
2022-11-23T00:12:56.315Z,2.87
2022-11-23T00:13:56.281Z,2.85
2022-11-23T00:14:56.254Z,2.85
2022-11-23T00:15:56.271Z,2.85
2022-11-23T00:16:56.239Z,2.84
2022-11-23T00:17:56.246Z,2.82
2022-11-23T00:18:56.207Z,2.82
2022-11-23T00:19:56.201Z,2.85
2022-11-23T00:20:56.190Z,2.84
2022-11-23T00:21:56.171Z,2.85
2022-11-23T00:22:56.176Z,2.87
2022-11-23T00:23:56.152Z,2.87
2022-11-23T00:24:56.190Z,2.88
2022-11-23T00:25:56.114Z,2.87
2022-11-23T00:26:56.106Z,2.87
2022-11-23T00:27:56.110Z,2.88
2022-11-23T00:28:56.083Z,2.85
2022-11-23T00:29:56.065Z,2.85
2022-11-23T00:30:56.046Z,2.87
2022-11-23T00:31:56.046Z,2.82
2022-11-23T00:32:56.040Z,2.82
2022-11-23T00:33:56.014Z,2.81
2022-11-23T00:34:56.000Z,2.82
2022-11-23T00:35:55.996Z,2.82
2022-11-23T00:36:55.983Z,2.84
2022-11-23T00:37:55.979Z,2.84
2022-11-23T00:38:55.947Z,2.84
2022-11-23T00:39:55.961Z,2.84
2022-11-23T00:40:55.921Z,2.87
2022-11-23T00:41:55.915Z,2.87
2022-11-23T00:42:55.908Z,2.89
2022-11-23T00:43:55.894Z,2.88
2022-11-23T00:44:55.869Z,2.89
2022-11-23T00:45:55.867Z,2.89
2022-11-23T00:46:55.844Z,2.92
2022-11-23T00:47:55.856Z,2.92
2022-11-23T00:48:55.821Z,2.94
2022-11-23T00:49:55.817Z,2.89
2022-11-23T00:50:55.801Z,2.92
2022-11-23T00:51:55.797Z,2.89
2022-11-23T00:52:55.784Z,2.91
2022-11-23T00:53:55.779Z,2.89
2022-11-23T00:54:55.758Z,2.92
2022-11-23T00:55:55.740Z,2.88
2022-11-23T00:56:55.723Z,2.89
2022-11-23T00:57:55.723Z,2.89
2022-11-23T00:58:55.715Z,2.91
2022-11-23T00:59:55.687Z,2.89
2022-11-23T01:00:55.671Z,2.92
2022-11-23T01:01:55.699Z,2.91
2022-11-23T01:02:55.659Z,2.92
2022-11-23T01:03:55.638Z,2.94
2022-11-23T01:04:55.621Z,2.95
2022-11-23T01:05:55.626Z,2.94
2022-11-23T01:06:55.590Z,2.95
2022-11-23T01:07:55.598Z,2.97
2022-11-23T01:08:55.569Z,2.97
2022-11-23T01:09:55.556Z,2.92
2022-11-23T01:10:55.547Z,2.94
2022-11-23T01:11:55.538Z,2.95
2022-11-23T01:12:55.526Z,2.94
2022-11-23T01:13:55.516Z,2.95
2022-11-23T01:14:55.495Z,2.97
2022-11-23T01:15:55.483Z,2.91
2022-11-23T01:16:55.466Z,2.91
2022-11-23T01:17:55.460Z,2.94
2022-11-23T01:18:55.448Z,2.94
2022-11-23T01:19:55.436Z,2.97
2022-11-23T01:20:55.416Z,2.95
2022-11-23T01:21:55.403Z,2.95
2022-11-23T01:22:55.411Z,2.98
2022-11-23T01:23:55.385Z,2.97
2022-11-23T01:24:55.370Z,3.00
2022-11-23T01:25:57.198Z,3.00
2022-11-23T01:26:55.347Z,2.98
2022-11-23T01:27:55.331Z,2.97
2022-11-23T01:28:55.335Z,2.97
2022-11-23T01:29:55.302Z,2.97
2022-11-23T01:30:55.316Z,2.97
2022-11-23T01:31:55.280Z,2.97
2022-11-23T01:32:55.260Z,2.97
2022-11-23T01:33:55.278Z,2.95
2022-11-23T01:34:55.237Z,2.95
2022-11-23T01:35:55.220Z,2.95
2022-11-23T01:36:55.213Z,2.95
2022-11-23T01:37:55.205Z,2.95
2022-11-23T01:38:55.238Z,2.95
2022-11-23T01:39:55.180Z,2.94
2022-11-23T01:40:55.154Z,2.97
2022-11-23T01:41:55.179Z,2.97
2022-11-23T01:42:55.139Z,2.97
2022-11-23T01:43:55.133Z,2.98
2022-11-23T01:44:55.109Z,2.98
2022-11-23T01:45:55.104Z,2.98
2022-11-23T01:46:55.084Z,3.00
2022-11-23T01:47:55.119Z,3.02
2022-11-23T01:48:55.083Z,3.02
2022-11-23T01:49:55.055Z,3.03
2022-11-23T01:50:55.040Z,3.05
2022-11-23T01:51:55.982Z,3.07
2022-11-23T01:52:55.002Z,3.05
2022-11-23T01:53:55.018Z,3.06
2022-11-23T01:54:54.984Z,3.07
2022-11-23T01:55:54.968Z,3.06
2022-11-23T01:56:54.947Z,3.09
2022-11-23T01:57:54.951Z,3.07
2022-11-23T01:58:54.943Z,3.07
2022-11-23T01:59:54.920Z,3.06
2022-11-23T02:00:54.938Z,3.09
2022-11-23T02:01:54.912Z,3.07
2022-11-23T02:02:54.887Z,3.09
2022-11-23T02:03:54.886Z,3.10
2022-11-23T02:04:54.865Z,3.10
2022-11-23T02:05:56.535Z,3.15
2022-11-23T02:06:54.842Z,3.16
2022-11-23T02:07:54.822Z,3.15
2022-11-23T02:08:54.818Z,3.16
2022-11-23T02:09:54.787Z,3.16
2022-11-23T02:10:54.777Z,3.20
2022-11-23T02:11:54.772Z,3.18
2022-11-23T02:12:54.750Z,3.20
2022-11-23T02:13:54.751Z,3.16
2022-11-23T02:14:54.724Z,3.21
2022-11-23T02:15:54.718Z,3.20
2022-11-23T02:16:54.701Z,3.23
2022-11-23T02:17:54.684Z,3.23
2022-11-23T02:18:54.688Z,3.23
2022-11-23T02:19:54.656Z,3.20
2022-11-23T02:20:54.647Z,3.20
2022-11-23T02:21:54.632Z,3.18
2022-11-23T02:22:54.629Z,3.21
2022-11-23T02:23:54.615Z,3.18
2022-11-23T02:24:54.596Z,3.21
2022-11-23T02:25:54.589Z,3.18
2022-11-23T02:26:54.579Z,3.18
2022-11-23T02:27:54.570Z,3.18
2022-11-23T02:28:54.559Z,3.16
2022-11-23T02:29:54.537Z,3.16
2022-11-23T02:30:57.256Z,3.18
2022-11-23T02:31:54.513Z,3.18
2022-11-23T02:32:54.506Z,3.20
2022-11-23T02:33:54.482Z,3.20
2022-11-23T02:34:54.466Z,3.21
2022-11-23T02:35:54.454Z,3.20
2022-11-23T02:36:54.458Z,3.20
2022-11-23T02:37:54.449Z,3.18
2022-11-23T02:38:54.447Z,3.21
2022-11-23T02:39:54.398Z,3.20
2022-11-23T02:40:54.392Z,3.21
2022-11-23T02:41:54.382Z,3.16
2022-11-23T02:42:54.381Z,3.20
2022-11-23T02:43:54.658Z,3.20
2022-11-23T02:44:54.338Z,3.20
2022-11-23T02:45:54.551Z,3.20
2022-11-23T02:46:54.378Z,3.21
2022-11-23T02:47:54.299Z,3.18
2022-11-23T02:48:54.309Z,3.21
2022-11-23T02:49:54.280Z,3.21
2022-11-23T02:50:54.273Z,3.21
2022-11-23T02:51:54.247Z,3.21
2022-11-23T02:52:54.257Z,3.21
2022-11-23T02:53:54.236Z,3.20
2022-11-23T02:54:54.231Z,3.20
2022-11-23T02:55:54.189Z,3.20
2022-11-23T02:56:54.183Z,3.20
2022-11-23T02:57:54.183Z,3.18
2022-11-23T02:58:54.173Z,3.21
2022-11-23T02:59:54.163Z,3.18
2022-11-23T03:00:54.227Z,3.20
2022-11-23T03:01:54.119Z,3.20
2022-11-23T03:02:54.121Z,3.21
2022-11-23T03:03:54.099Z,3.23
2022-11-23T03:04:54.110Z,3.23
2022-11-23T03:05:54.062Z,3.23
2022-11-23T03:06:54.065Z,3.23
2022-11-23T03:07:54.105Z,3.23
2022-11-23T03:08:54.032Z,3.24
2022-11-23T03:09:54.042Z,3.18
2022-11-23T03:10:54.011Z,3.20
2022-11-23T03:11:53.998Z,3.21
2022-11-23T03:12:53.977Z,3.20
2022-11-23T03:13:53.961Z,3.21
2022-11-23T03:14:53.970Z,3.23
2022-11-23T03:15:53.954Z,3.23
2022-11-23T03:16:53.932Z,3.24
2022-11-23T03:17:53.907Z,3.24
2022-11-23T03:18:53.914Z,3.24
2022-11-23T03:19:53.904Z,3.24
2022-11-23T03:20:55.548Z,3.24
2022-11-23T03:21:53.863Z,3.25
2022-11-23T03:22:53.859Z,3.25
2022-11-23T03:23:53.839Z,3.27
2022-11-23T03:24:53.863Z,3.27
2022-11-23T03:25:53.808Z,3.27
2022-11-23T03:26:53.799Z,3.28
2022-11-23T03:27:53.783Z,3.28
2022-11-23T03:28:53.782Z,3.28
2022-11-23T03:29:53.780Z,3.28
2022-11-23T03:30:53.762Z,3.31
2022-11-23T03:31:53.739Z,3.31
2022-11-23T03:32:53.717Z,3.33
2022-11-23T03:33:53.706Z,3.31
2022-11-23T03:34:53.722Z,3.36
2022-11-23T03:35:53.700Z,3.34
2022-11-23T03:36:53.682Z,3.34
2022-11-23T03:37:53.672Z,3.34
2022-11-23T03:38:53.650Z,3.33
2022-11-23T03:39:53.651Z,3.36
2022-11-23T03:40:53.637Z,3.36
2022-11-23T03:41:53.610Z,3.33
2022-11-23T03:42:53.598Z,3.36
2022-11-23T03:43:53.576Z,3.34
2022-11-23T03:44:53.583Z,3.39
2022-11-23T03:45:53.568Z,3.39
2022-11-23T03:46:53.543Z,3.39
2022-11-23T03:47:53.527Z,3.39
2022-11-23T03:48:53.518Z,3.39
2022-11-23T03:49:53.522Z,3.40
2022-11-23T03:50:53.495Z,3.39
2022-11-23T03:51:53.491Z,3.40
2022-11-23T03:52:53.480Z,3.40
2022-11-23T03:53:53.454Z,3.42
2022-11-23T03:54:53.454Z,3.42
2022-11-23T03:55:53.428Z,3.42
2022-11-23T03:56:53.435Z,3.42
2022-11-23T03:57:53.397Z,3.43
2022-11-23T03:58:53.397Z,3.46
2022-11-23T03:59:53.389Z,3.44
2022-11-23T04:00:53.406Z,3.47
2022-11-23T04:01:53.367Z,3.46
2022-11-23T04:02:53.346Z,3.49
2022-11-23T04:03:53.321Z,3.52
2022-11-23T04:04:53.326Z,3.47
2022-11-23T04:05:53.295Z,3.52
2022-11-23T04:06:53.317Z,3.52
2022-11-23T04:07:53.279Z,3.53
2022-11-23T04:08:57.403Z,3.53
2022-11-23T04:09:54.262Z,3.54
2022-11-23T04:10:53.245Z,3.58
2022-11-23T04:11:53.237Z,3.54
2022-11-23T04:12:53.218Z,3.58
2022-11-23T04:13:53.193Z,3.57
2022-11-23T04:14:53.209Z,3.57
2022-11-23T04:15:53.167Z,3.60
2022-11-23T04:16:53.176Z,3.60
2022-11-23T04:17:53.144Z,3.58
2022-11-23T04:18:53.153Z,3.61
2022-11-23T04:19:53.142Z,3.61
2022-11-23T04:20:53.115Z,3.61
2022-11-23T04:21:53.097Z,3.61
2022-11-23T04:22:53.104Z,3.64
2022-11-23T04:23:53.079Z,3.65
2022-11-23T04:24:53.077Z,3.68
2022-11-23T04:25:53.168Z,3.67
2022-11-23T04:26:53.042Z,3.68
2022-11-23T04:27:53.036Z,3.65
2022-11-23T04:28:53.021Z,3.70
2022-11-23T04:29:53.018Z,3.68
2022-11-23T04:30:52.985Z,3.68
2022-11-23T04:31:52.981Z,3.68
2022-11-23T04:32:52.960Z,3.70
2022-11-23T04:33:52.946Z,3.70
2022-11-23T04:34:52.952Z,3.70
2022-11-23T04:35:52.912Z,3.72
2022-11-23T04:36:52.922Z,3.68
2022-11-23T04:37:52.900Z,3.71
2022-11-23T04:38:52.885Z,3.75
2022-11-23T04:39:52.917Z,3.71
2022-11-23T04:40:52.853Z,3.75
2022-11-23T04:41:52.847Z,3.72
2022-11-23T04:42:53.840Z,3.70
2022-11-23T04:43:52.834Z,3.76
2022-11-23T04:44:52.809Z,3.75
2022-11-23T04:45:52.794Z,3.76
2022-11-23T04:46:52.776Z,3.75
2022-11-23T04:47:52.769Z,3.75
2022-11-23T04:48:52.787Z,3.76
2022-11-23T04:49:52.754Z,3.76
2022-11-23T04:50:55.661Z,3.79
2022-11-23T04:51:52.714Z,3.78
2022-11-23T04:52:52.736Z,3.79
2022-11-23T04:53:52.716Z,3.79
2022-11-23T04:54:52.713Z,3.80
2022-11-23T04:55:52.665Z,3.82
2022-11-23T04:56:52.654Z,3.80
2022-11-23T04:57:52.646Z,3.82
2022-11-23T04:58:52.638Z,3.86
2022-11-23T04:59:52.714Z,3.83
2022-11-23T05:00:52.657Z,3.85
2022-11-23T05:01:52.580Z,3.86
2022-11-23T05:02:52.576Z,3.83
2022-11-23T05:03:52.575Z,3.86
2022-11-23T05:04:52.559Z,3.86
2022-11-23T05:05:52.575Z,3.85
2022-11-23T05:06:52.526Z,3.85
2022-11-23T05:07:52.504Z,3.85
2022-11-23T05:08:52.504Z,3.85
2022-11-23T05:09:52.501Z,3.83
2022-11-23T05:10:52.485Z,3.83
2022-11-23T05:11:52.455Z,3.83
2022-11-23T05:12:52.452Z,3.80
2022-11-23T05:13:52.434Z,3.80
2022-11-23T05:14:52.428Z,3.83
2022-11-23T05:15:52.438Z,3.82
2022-11-23T05:16:52.422Z,3.85
2022-11-23T05:17:57.711Z,3.80
2022-11-23T05:18:53.377Z,3.83
2022-11-23T05:19:52.391Z,3.82
2022-11-23T05:20:52.371Z,3.80
2022-11-23T05:21:52.376Z,3.80
2022-11-23T05:22:52.316Z,3.80
2022-11-23T05:23:52.301Z,3.79
2022-11-23T05:24:52.303Z,3.80
2022-11-23T05:25:52.300Z,3.79
2022-11-23T05:26:56.155Z,3.82
2022-11-23T05:27:52.252Z,3.79
2022-11-23T05:28:52.240Z,3.78
2022-11-23T05:29:52.235Z,3.78
2022-11-23T05:30:52.236Z,3.79
2022-11-23T05:31:52.208Z,3.80
2022-11-23T05:32:52.208Z,3.79
2022-11-23T05:33:52.181Z,3.78
2022-11-23T05:34:52.170Z,3.79
2022-11-23T05:35:52.160Z,3.79
2022-11-23T05:36:52.139Z,3.78
2022-11-23T05:37:52.127Z,3.79
2022-11-23T05:38:52.121Z,3.78
2022-11-23T05:39:52.111Z,3.79
2022-11-23T05:40:52.106Z,3.82
2022-11-23T05:41:52.073Z,3.79
2022-11-23T05:42:52.106Z,3.80
2022-11-23T05:43:52.053Z,3.83
2022-11-23T05:44:52.041Z,3.82
2022-11-23T05:45:52.021Z,3.80
2022-11-23T05:46:52.033Z,3.82
2022-11-23T05:47:52.007Z,3.80
2022-11-23T05:48:52.006Z,3.82
2022-11-23T05:49:51.976Z,3.80
2022-11-23T05:50:51.972Z,3.83
2022-11-23T05:51:51.961Z,3.82
2022-11-23T05:52:51.936Z,3.82
2022-11-23T05:53:51.926Z,3.83
2022-11-23T05:54:51.906Z,3.83
2022-11-23T05:55:51.904Z,3.85
2022-11-23T05:56:51.897Z,3.85
2022-11-23T05:57:51.865Z,3.88
2022-11-23T05:58:51.856Z,3.88
2022-11-23T05:59:51.839Z,3.90
2022-11-23T06:00:51.838Z,3.94
2022-11-23T06:01:51.838Z,3.96
2022-11-23T06:02:51.806Z,3.97
2022-11-23T06:03:51.887Z,3.96
2022-11-23T06:04:51.800Z,3.96
2022-11-23T06:05:51.761Z,3.96
2022-11-23T06:06:51.770Z,3.96
2022-11-23T06:07:51.812Z,3.97
2022-11-23T06:08:51.736Z,3.98
2022-11-23T06:09:51.789Z,3.96
2022-11-23T06:10:51.702Z,3.97
2022-11-23T06:11:51.704Z,4.00
2022-11-23T06:12:51.674Z,4.00
2022-11-23T06:13:51.682Z,3.98
2022-11-23T06:14:51.659Z,4.00
2022-11-23T06:15:51.636Z,4.00
2022-11-23T06:16:53.317Z,3.98
2022-11-23T06:17:51.636Z,3.96
2022-11-23T06:18:51.623Z,3.98
2022-11-23T06:19:51.587Z,4.00
2022-11-23T06:20:51.592Z,4.00
2022-11-23T06:21:51.575Z,4.01
2022-11-23T06:22:51.579Z,4.01
2022-11-23T06:23:51.533Z,4.00
2022-11-23T06:24:51.522Z,3.98
2022-11-23T06:25:51.510Z,3.97
2022-11-23T06:26:51.507Z,3.94
2022-11-23T06:27:51.487Z,3.96
2022-11-23T06:28:51.500Z,3.96
2022-11-23T06:29:51.473Z,3.96
2022-11-23T06:30:51.455Z,3.97
2022-11-23T06:31:51.455Z,3.97
2022-11-23T06:32:51.451Z,3.98
2022-11-23T06:33:51.414Z,3.97
2022-11-23T06:34:51.400Z,4.00
2022-11-23T06:35:51.419Z,3.97
2022-11-23T06:36:51.378Z,3.96
2022-11-23T06:37:51.364Z,3.98
2022-11-23T06:38:51.363Z,4.00
2022-11-23T06:39:51.349Z,4.01
2022-11-23T06:40:51.318Z,4.03
2022-11-23T06:41:51.336Z,4.00
2022-11-23T06:42:51.297Z,4.06
2022-11-23T06:43:51.291Z,4.03
2022-11-23T06:44:51.268Z,4.03
2022-11-23T06:45:51.272Z,4.03
2022-11-23T06:46:51.239Z,4.01
2022-11-23T06:47:51.244Z,4.03
2022-11-23T06:48:51.225Z,4.00
2022-11-23T06:49:51.214Z,3.98
2022-11-23T06:50:51.202Z,4.01
2022-11-23T06:51:51.198Z,4.01
2022-11-23T06:52:51.179Z,4.01
2022-11-23T06:53:51.169Z,4.01
2022-11-23T06:54:51.166Z,4.01
2022-11-23T06:55:51.149Z,4.04
2022-11-23T06:56:51.123Z,4.04
2022-11-23T06:57:51.121Z,4.06
2022-11-23T06:58:51.089Z,4.12
2022-11-23T06:59:55.121Z,4.14
2022-11-23T07:00:51.070Z,4.10
2022-11-23T07:01:51.112Z,4.12
2022-11-23T07:02:51.054Z,4.14
2022-11-23T07:03:51.076Z,4.14
2022-11-23T07:04:51.022Z,4.14
2022-11-23T07:05:51.000Z,4.15
2022-11-23T07:06:50.988Z,4.14
2022-11-23T07:07:51.009Z,4.14
2022-11-23T07:08:50.970Z,4.15
2022-11-23T07:09:50.961Z,4.16
2022-11-23T07:10:50.940Z,4.18
2022-11-23T07:11:50.942Z,4.19
2022-11-23T07:12:50.918Z,4.19
2022-11-23T07:13:50.907Z,4.22
2022-11-23T07:14:50.899Z,4.22
2022-11-23T07:15:50.899Z,4.22
2022-11-23T07:16:50.855Z,4.22
2022-11-23T07:17:50.858Z,4.25
2022-11-23T07:18:50.836Z,4.26
2022-11-23T07:19:50.865Z,4.28
2022-11-23T07:20:50.827Z,4.32
2022-11-23T07:21:50.818Z,4.32
2022-11-23T07:22:50.786Z,4.36
2022-11-23T07:23:50.775Z,4.37
2022-11-23T07:24:50.764Z,4.39
2022-11-23T07:25:50.757Z,4.43
2022-11-23T07:26:50.744Z,4.44
2022-11-23T07:27:50.734Z,4.44
2022-11-23T07:28:50.703Z,4.43
2022-11-23T07:29:50.719Z,4.44
2022-11-23T07:30:50.695Z,4.50
2022-11-23T07:31:50.665Z,4.46
2022-11-23T07:32:50.657Z,4.50
2022-11-23T07:33:50.670Z,4.51
2022-11-23T07:34:55.565Z,4.52
2022-11-23T07:35:50.617Z,4.51
2022-11-23T07:36:50.603Z,4.57
2022-11-23T07:37:50.607Z,4.57
2022-11-23T07:38:50.596Z,4.59
2022-11-23T07:39:58.547Z,4.61
2022-11-23T07:40:51.566Z,4.59
2022-11-23T07:41:51.441Z,4.58
2022-11-23T07:42:50.531Z,4.59
2022-11-23T07:43:50.536Z,4.62
2022-11-23T07:44:50.508Z,4.62
2022-11-23T07:45:50.498Z,4.64
2022-11-23T07:46:50.487Z,4.69
2022-11-23T07:47:50.463Z,4.70
2022-11-23T07:48:50.456Z,4.70
2022-11-23T07:49:50.436Z,4.70
2022-11-23T07:50:50.445Z,4.72
2022-11-23T07:51:50.418Z,4.73
2022-11-23T07:52:50.398Z,4.76
2022-11-23T07:53:50.414Z,4.80
2022-11-23T07:54:50.364Z,4.80
2022-11-23T07:55:50.372Z,4.86
2022-11-23T07:56:50.343Z,4.88
2022-11-23T07:57:50.337Z,4.86
2022-11-23T07:58:50.338Z,4.91
2022-11-23T07:59:50.317Z,4.94
2022-11-23T08:00:50.978Z,4.94
2022-11-23T08:01:54.320Z,4.92
2022-11-23T08:03:11.774Z,4.94
2022-11-23T08:03:51.269Z,4.92
2022-11-23T08:04:50.273Z,4.92
2022-11-23T08:05:50.236Z,4.89
2022-11-23T08:06:50.214Z,4.92
2022-11-23T08:07:50.269Z,4.95
2022-11-23T08:08:51.891Z,4.95
2022-11-23T08:09:50.183Z,4.94
2022-11-23T08:10:53.719Z,4.96
2022-11-23T08:11:50.177Z,4.96
2022-11-23T08:12:50.155Z,4.99
2022-11-23T08:13:50.175Z,4.96
2022-11-23T08:14:50.140Z,4.98
2022-11-23T08:15:54.315Z,4.94
2022-11-23T08:16:51.132Z,4.96
2022-11-23T08:17:50.093Z,4.95
2022-11-23T08:18:50.079Z,4.94
2022-11-23T08:19:50.055Z,4.96
2022-11-23T08:20:50.043Z,4.96
2022-11-23T08:21:50.060Z,4.98
2022-11-23T08:22:50.024Z,4.96
2022-11-23T08:23:50.045Z,4.99
2022-11-23T08:24:49.998Z,4.99
2022-11-23T08:25:49.979Z,5.01
2022-11-23T08:26:49.958Z,4.98
2022-11-23T08:27:49.952Z,5.01
2022-11-23T08:28:49.960Z,4.99
2022-11-23T08:29:49.948Z,5.02
2022-11-23T08:30:49.916Z,5.07
2022-11-23T08:31:49.916Z,5.05
2022-11-23T08:32:49.884Z,5.09
2022-11-23T08:33:49.889Z,5.07
2022-11-23T08:34:49.866Z,5.05
2022-11-23T08:35:49.882Z,5.07
2022-11-23T08:36:49.859Z,5.12
2022-11-23T08:37:49.830Z,5.13
2022-11-23T08:38:49.818Z,5.16
2022-11-23T08:39:49.830Z,5.19
2022-11-23T08:40:49.783Z,5.22
2022-11-23T08:41:49.772Z,5.19
2022-11-23T08:42:49.769Z,5.20
2022-11-23T08:43:49.755Z,5.22
2022-11-23T08:44:49.760Z,5.23
2022-11-23T08:45:49.730Z,5.22
2022-11-23T08:46:49.714Z,5.22
2022-11-23T08:47:49.700Z,5.27
2022-11-23T08:48:49.695Z,5.27
2022-11-23T08:49:49.689Z,5.27
2022-11-23T08:50:49.665Z,5.31
2022-11-23T08:51:50.433Z,5.31
2022-11-23T08:52:49.634Z,5.35
2022-11-23T08:53:49.630Z,5.32
2022-11-23T08:54:49.617Z,5.37
2022-11-23T08:55:49.615Z,5.37
2022-11-23T08:56:49.584Z,5.40
2022-11-23T08:57:49.573Z,5.41
2022-11-23T08:58:49.575Z,5.48
2022-11-23T08:59:49.564Z,5.48
2022-11-23T09:00:49.584Z,5.53
2022-11-23T09:01:49.626Z,5.53
2022-11-23T09:02:49.510Z,5.56
2022-11-23T09:03:49.498Z,5.57
2022-11-23T09:04:49.502Z,5.59
2022-11-23T09:05:49.486Z,5.59
2022-11-23T09:06:49.464Z,5.60
2022-11-23T09:07:49.564Z,5.63
2022-11-23T09:08:49.431Z,5.63
2022-11-23T09:09:49.459Z,5.66
2022-11-23T09:10:49.717Z,5.71
2022-11-23T09:11:49.401Z,5.74
2022-11-23T09:12:49.380Z,5.75
2022-11-23T09:13:49.393Z,5.81
2022-11-23T09:14:49.407Z,5.81
2022-11-23T09:15:49.353Z,5.82
2022-11-23T09:16:49.336Z,5.85
2022-11-23T09:17:49.332Z,5.85
2022-11-23T09:18:49.306Z,5.85
2022-11-23T09:19:49.318Z,5.85
2022-11-23T09:20:49.319Z,5.91
2022-11-23T09:21:49.271Z,5.92
2022-11-23T09:22:49.266Z,5.93
2022-11-23T09:23:49.276Z,5.93
2022-11-23T09:24:49.280Z,5.95
2022-11-23T09:25:49.238Z,5.98
2022-11-23T09:26:49.229Z,6.03
2022-11-23T09:27:49.222Z,6.04
2022-11-23T09:28:49.176Z,6.07
2022-11-23T09:29:49.191Z,6.09
2022-11-23T09:30:49.175Z,6.14
2022-11-23T09:31:49.152Z,6.10
2022-11-23T09:32:49.133Z,6.11
2022-11-23T09:33:49.122Z,6.11
2022-11-23T09:34:49.112Z,6.11
2022-11-23T09:35:49.091Z,6.14
2022-11-23T09:36:49.089Z,6.11
2022-11-23T09:37:49.065Z,6.13
2022-11-23T09:38:56.753Z,6.14
2022-11-23T09:39:50.057Z,6.13
2022-11-23T09:40:51.403Z,6.16
2022-11-23T09:41:50.020Z,6.21
2022-11-23T09:42:49.000Z,6.22
2022-11-23T09:43:48.987Z,6.26
2022-11-23T09:44:48.968Z,6.32
2022-11-23T09:45:48.974Z,6.33
2022-11-23T09:46:48.953Z,6.41
2022-11-23T09:47:48.933Z,6.41
2022-11-23T09:48:48.917Z,6.46
2022-11-23T09:49:48.912Z,6.48
2022-11-23T09:50:48.907Z,6.66
2022-11-23T09:51:48.903Z,6.87
2022-11-23T09:52:48.866Z,7.07
2022-11-23T09:53:48.870Z,7.22
2022-11-23T09:54:48.843Z,7.32
2022-11-23T09:55:48.850Z,7.35
2022-11-23T09:56:48.819Z,7.49
2022-11-23T09:57:48.844Z,7.69
2022-11-23T09:58:48.804Z,7.84
2022-11-23T09:59:48.776Z,7.94
2022-11-23T10:00:48.801Z,8.00
2022-11-23T10:01:48.803Z,8.02
2022-11-23T10:02:48.750Z,8.02
2022-11-23T10:03:49.492Z,7.92
2022-11-23T10:04:48.716Z,7.81
2022-11-23T10:05:48.717Z,7.71
2022-11-23T10:06:48.693Z,7.49
2022-11-23T10:07:48.739Z,7.41
2022-11-23T10:08:48.674Z,7.27
2022-11-23T10:09:48.646Z,7.13
2022-11-23T10:10:48.642Z,7.07
2022-11-23T10:11:48.640Z,6.97
2022-11-23T10:12:48.611Z,6.97
2022-11-23T10:13:48.593Z,6.95
2022-11-23T10:14:48.580Z,6.89
2022-11-23T10:15:48.573Z,6.90
2022-11-23T10:16:48.556Z,6.90
2022-11-23T10:17:48.556Z,6.89
2022-11-23T10:18:48.525Z,6.94
2022-11-23T10:19:48.531Z,6.98
2022-11-23T10:20:48.520Z,7.01
2022-11-23T10:21:48.502Z,7.05
2022-11-23T10:22:48.490Z,7.09
2022-11-23T10:23:48.509Z,7.13
2022-11-23T10:24:48.454Z,7.19
2022-11-23T10:25:48.453Z,7.20
2022-11-23T10:26:48.424Z,7.23
2022-11-23T10:27:49.141Z,7.23
2022-11-23T10:28:49.324Z,7.27
2022-11-23T10:29:48.395Z,7.29
2022-11-23T10:30:48.488Z,7.32
2022-11-23T10:31:51.404Z,7.31
2022-11-23T10:32:49.363Z,7.35
2022-11-23T10:33:48.359Z,7.37
2022-11-23T10:34:48.332Z,7.40
2022-11-23T10:35:48.364Z,7.44
2022-11-23T10:36:48.293Z,7.44
2022-11-23T10:37:48.299Z,7.42
2022-11-23T10:38:48.305Z,7.42
2022-11-23T10:39:48.285Z,7.41
2022-11-23T10:40:48.264Z,7.44
2022-11-23T10:41:48.250Z,7.44
2022-11-23T10:42:48.237Z,7.47
2022-11-23T10:43:48.220Z,7.47
2022-11-23T10:44:48.197Z,7.45
2022-11-23T10:45:48.190Z,7.45
2022-11-23T10:46:49.132Z,7.49
2022-11-23T10:47:48.169Z,7.45
2022-11-23T10:48:48.145Z,7.42
2022-11-23T10:49:48.162Z,7.42
2022-11-23T10:50:48.130Z,7.38
2022-11-23T10:51:48.108Z,7.42
2022-11-23T10:52:48.090Z,7.42
2022-11-23T10:53:48.089Z,7.41
2022-11-23T10:54:48.165Z,7.41
2022-11-23T10:55:48.065Z,7.42
2022-11-23T10:56:48.064Z,7.50
2022-11-23T10:57:48.022Z,7.47
2022-11-23T10:58:48.033Z,7.41
2022-11-23T10:59:48.026Z,7.41
2022-11-23T11:00:48.025Z,7.42
2022-11-23T11:01:48.008Z,7.41
2022-11-23T11:02:47.962Z,7.41
2022-11-23T11:03:47.963Z,7.41
2022-11-23T11:04:47.947Z,7.40
2022-11-23T11:06:08.244Z,7.40
2022-11-23T11:06:48.925Z,7.38
2022-11-23T11:07:47.925Z,7.40
2022-11-23T11:08:47.923Z,7.44
2022-11-23T11:09:47.884Z,7.40
2022-11-23T11:10:47.863Z,7.41
2022-11-23T11:11:47.874Z,7.42
2022-11-23T11:12:47.842Z,7.42
2022-11-23T11:13:47.889Z,7.41
2022-11-23T11:14:48.250Z,7.41
2022-11-23T11:15:52.532Z,7.40
2022-11-23T11:16:47.860Z,7.38
2022-11-23T11:17:47.774Z,7.37
2022-11-23T11:18:47.760Z,7.38
2022-11-23T11:19:47.764Z,7.40
2022-11-23T11:20:47.756Z,7.41
2022-11-23T11:21:47.751Z,7.42
2022-11-23T11:22:48.072Z,7.47
2022-11-23T11:23:47.690Z,7.50
2022-11-23T11:24:47.688Z,7.55
2022-11-23T11:25:47.697Z,7.55
2022-11-23T11:26:47.688Z,7.58
2022-11-23T11:27:47.651Z,7.60
2022-11-23T11:28:47.634Z,7.62
2022-11-23T11:29:47.640Z,7.67
2022-11-23T11:30:47.617Z,7.71
2022-11-23T11:31:47.614Z,7.71
2022-11-23T11:32:47.600Z,7.72
2022-11-23T11:33:47.563Z,7.78
2022-11-23T11:34:47.556Z,7.81
2022-11-23T11:35:47.553Z,7.84
2022-11-23T11:36:47.555Z,7.87
2022-11-23T11:37:47.508Z,7.89
2022-11-23T11:39:07.769Z,7.89
2022-11-23T11:39:48.498Z,7.89
2022-11-23T11:40:47.475Z,7.89
2022-11-23T11:41:47.483Z,7.90
2022-11-23T11:42:47.457Z,7.94
2022-11-23T11:43:47.437Z,7.93
2022-11-23T11:44:47.425Z,7.94
2022-11-23T11:46:13.080Z,7.94
2022-11-23T11:46:48.404Z,7.94
2022-11-23T11:47:47.389Z,7.94
2022-11-23T11:48:47.373Z,7.94
2022-11-23T11:49:47.352Z,7.92
2022-11-23T11:50:47.353Z,7.92
2022-11-23T11:51:47.341Z,7.89
2022-11-23T11:52:47.318Z,7.90
2022-11-23T11:53:47.341Z,7.87
2022-11-23T11:54:47.338Z,7.87
2022-11-23T11:55:47.288Z,7.89
2022-11-23T11:56:47.297Z,7.85
2022-11-23T11:57:47.285Z,7.87
2022-11-23T11:58:47.248Z,7.90
2022-11-23T11:59:47.245Z,7.93
2022-11-23T12:00:47.251Z,7.96
2022-11-23T12:01:47.207Z,7.97
2022-11-23T12:02:47.235Z,8.02
2022-11-23T12:03:47.178Z,7.97
2022-11-23T12:04:47.166Z,7.97
2022-11-23T12:05:47.148Z,7.94
2022-11-23T12:06:47.164Z,7.96
2022-11-23T12:07:47.208Z,7.93
2022-11-23T12:08:47.120Z,7.92
2022-11-23T12:09:47.110Z,7.92
2022-11-23T12:10:47.086Z,7.93
2022-11-23T12:11:47.089Z,7.96
2022-11-23T12:12:47.071Z,7.97
2022-11-23T12:13:47.105Z,8.02
2022-11-23T12:14:47.032Z,8.08
2022-11-23T12:15:49.944Z,8.10
2022-11-23T12:16:59.295Z,8.14
2022-11-23T12:17:48.000Z,8.12
2022-11-23T12:18:46.989Z,8.12
2022-11-23T12:19:46.975Z,8.10
2022-11-23T12:20:46.976Z,8.08
2022-11-23T12:21:50.094Z,8.10
2022-11-23T12:22:47.936Z,8.10
2022-11-23T12:23:46.916Z,8.10
2022-11-23T12:24:46.914Z,8.07
2022-11-23T12:25:46.893Z,8.08
2022-11-23T12:26:46.889Z,8.10
2022-11-23T12:27:48.979Z,8.10
2022-11-23T12:28:46.877Z,8.11
2022-11-23T12:29:46.845Z,8.14
2022-11-23T12:30:46.855Z,8.17
2022-11-23T12:31:46.861Z,8.17
2022-11-23T12:32:46.845Z,8.20
2022-11-23T12:33:46.795Z,8.20
2022-11-23T12:34:46.773Z,8.20
2022-11-23T12:35:46.812Z,8.21
2022-11-23T12:36:46.749Z,8.21
2022-11-23T12:37:46.756Z,8.18
2022-11-23T12:38:46.734Z,8.21
2022-11-23T12:39:46.708Z,8.20
2022-11-23T12:40:46.703Z,8.21
2022-11-23T12:41:46.676Z,8.20
2022-11-23T12:42:46.689Z,8.22
2022-11-23T12:43:46.650Z,8.22
2022-11-23T12:44:46.651Z,8.28
2022-11-23T12:45:46.639Z,8.29
2022-11-23T12:46:46.628Z,8.29
2022-11-23T12:47:46.627Z,8.32
2022-11-23T12:48:46.613Z,8.33
2022-11-23T12:49:46.587Z,8.35
2022-11-23T12:50:46.563Z,8.35
2022-11-23T12:51:46.557Z,8.37
2022-11-23T12:52:46.558Z,8.45
2022-11-23T12:53:46.583Z,8.48
2022-11-23T12:54:46.515Z,8.54
2022-11-23T12:55:46.501Z,8.53
2022-11-23T12:56:46.508Z,8.50
2022-11-23T12:57:46.519Z,8.51
2022-11-23T12:58:46.463Z,8.51
2022-11-23T12:59:46.460Z,8.50
2022-11-23T13:00:46.478Z,8.51
2022-11-23T13:01:46.461Z,8.48
2022-11-23T13:02:46.428Z,8.51
2022-11-23T13:03:46.393Z,8.51
2022-11-23T13:04:46.398Z,8.51
2022-11-23T13:05:46.364Z,8.51
2022-11-23T13:07:05.585Z,8.51
2022-11-23T13:07:49.269Z,8.50
2022-11-23T13:08:46.337Z,8.50
2022-11-23T13:09:46.324Z,8.47
2022-11-23T13:10:46.301Z,8.47
2022-11-23T13:11:46.289Z,8.48
2022-11-23T13:12:46.288Z,8.51
2022-11-23T13:13:46.320Z,8.50
2022-11-23T13:14:46.265Z,8.48
2022-11-23T13:15:46.306Z,8.48
2022-11-23T13:16:46.346Z,8.48
2022-11-23T13:17:46.226Z,8.50
2022-11-23T13:18:46.202Z,8.50